Cornucopia Destiny — WDE6386 — position and weather

sailwx.info

Track history (hours):
 
Tides and Currents Weather Stations Pressure Air Temp Water Temp Dewpoint Dewpoint Depression Visibility Wind Speed Wind Dir Waves Ship Positions

Cornucopia Destiny

Owner: Sultan Wholesale LLC, Keyport, NJ. More information available from US FCC via Universal Licensing System and Coast Guard Vessel Documentation Center.

Last reported at 2017-Apr-22 22:37 UTC. Time now 2017-Apr-25 16:33 UTC.
Position N 40°45' W 074°01'.

Length 39 m.

Type: Passenger vessel. MMSI: 367379570.

Date/timePositionNaut miles runAvg speedWind from/ knotsBaromVisibWave heightAir tempDewpointWater temp
2017-Apr-22 22:37N 40°45' W 074°01'0 0.0
2017-Apr-22 22:30N 40°45' W 074°01'0 0.0
2017-Apr-22 22:00N 40°45' W 074°01'0 0.0
2017-Apr-22 21:30N 40°45' W 074°01'0 0.0
2017-Apr-22 21:00N 40°45' W 074°01'0 0.0
2017-Apr-22 20:30N 40°45' W 074°01'0 0.0
2017-Apr-22 20:00N 40°45' W 074°01'0 0.0
2017-Apr-22 19:30N 40°45' W 074°01'0 0.0
2017-Apr-22 19:00N 40°45' W 074°01'0 0.0
2017-Apr-22 18:30N 40°45' W 074°01'0 0.0
2017-Apr-22 18:00N 40°45' W 074°01'0 0.0
2017-Apr-22 17:30N 40°45' W 074°01'0 0.0
2017-Apr-22 17:00N 40°45' W 074°01'0 0.0
2017-Apr-22 16:30N 40°45' W 074°01'0 0.0
2017-Apr-22 16:00N 40°45' W 074°01'0 0.0
2017-Apr-22 15:30N 40°45' W 074°01'0 0.0
2017-Apr-22 15:00N 40°45' W 074°01'0 0.0
2017-Apr-22 14:30N 40°45' W 074°01'0 0.0
2017-Apr-22 13:30N 40°45' W 074°01'0 0.0
2017-Apr-22 13:00N 40°45' W 074°01'0 0.0
2017-Apr-22 12:30N 40°45' W 074°01'0 0.0
2017-Apr-22 12:00N 40°45' W 074°01'0 0.0
2017-Apr-22 11:30N 40°45' W 074°01'0 0.0
2017-Apr-22 11:00N 40°45' W 074°01'0 0.0
2017-Apr-22 10:30N 40°45' W 074°01'0 0.0
2017-Apr-22 10:00N 40°45' W 074°01'0 0.0
2017-Apr-22 09:30N 40°45' W 074°01'0 0.0
2017-Apr-22 09:00N 40°45' W 074°01'0 0.0
2017-Apr-22 08:30N 40°45' W 074°01'0 0.0
2017-Apr-22 08:00N 40°45' W 074°01'0 0.0
2017-Apr-22 07:30N 40°45' W 074°01'0 0.0
2017-Apr-22 07:00N 40°45' W 074°01'0 0.0
2017-Apr-22 06:30N 40°45' W 074°01'0 0.0
2017-Apr-22 06:00N 40°45' W 074°01'0 0.0
2017-Apr-22 05:30N 40°45' W 074°01'0 0.0
2017-Apr-22 05:00N 40°45' W 074°01'0 0.0
2017-Apr-22 04:30N 40°45' W 074°01'0 0.0
2017-Apr-22 04:00N 40°45' W 074°01'0 0.3
2017-Apr-22 03:30N 40°45' W 074°01'3 5.0
2017-Apr-22 03:00N 40°43' W 074°02'0 1.0
2017-Apr-22 02:30N 40°43' W 074°02'1 1.1
2017-Apr-22 02:00N 40°43' W 074°02'1 1.3
2017-Apr-22 01:22N 40°42' W 074°02'1 2.5
2017-Apr-22 01:01N 40°42' W 074°01'2 3.0
2017-Apr-22 00:11N 40°43' W 073°58'2 3.3
2017-Apr-21 23:41N 40°42' W 073°60'1 4.3
2017-Apr-21 23:29N 40°42' W 074°01'1 2.9
2017-Apr-21 23:00N 40°43' W 074°02'0 0.0
2017-Apr-21 22:31N 40°43' W 074°02'1 2.8
2017-Apr-21 22:00N 40°44' W 074°01'1 2.7
2017-Apr-21 21:30N 40°45' W 074°01'0 0.0
2017-Apr-21 21:00N 40°45' W 074°01'0 0.0
2017-Apr-21 20:30N 40°45' W 074°01'0 0.0
2017-Apr-21 20:00N 40°45' W 074°01'0 0.0
2017-Apr-21 19:30N 40°45' W 074°01'0 0.0
2017-Apr-21 19:00N 40°45' W 074°01'0 0.0
2017-Apr-21 18:30N 40°45' W 074°01'0 0.0
2017-Apr-21 18:00N 40°45' W 074°01'0 0.0
2017-Apr-21 17:30N 40°45' W 074°01'0 0.0
2017-Apr-21 17:00N 40°45' W 074°01'0 0.0
2017-Apr-21 16:30N 40°45' W 074°01'0 0.0
2017-Apr-21 16:00N 40°45' W 074°01'0 0.0
2017-Apr-21 15:30N 40°45' W 074°01'0 0.0
2017-Apr-21 15:00N 40°45' W 074°01'0 0.0
2017-Apr-20 22:30N 40°45' W 074°01'0 0.0
2017-Apr-20 22:00N 40°45' W 074°01'0 0.0
2017-Apr-20 21:30N 40°45' W 074°01'0 0.0
2017-Apr-20 21:01N 40°45' W 074°01'0 0.0
2017-Apr-20 20:30N 40°45' W 074°01'0 0.0
2017-Apr-20 20:00N 40°45' W 074°01'0 0.0
2017-Apr-20 19:30N 40°45' W 074°01'0 0.0
2017-Apr-20 19:00N 40°45' W 074°01'0 0.0
2017-Apr-20 18:30N 40°45' W 074°01'0 0.0
2017-Apr-20 18:01N 40°45' W 074°01'0 0.0
2017-Apr-20 17:30N 40°45' W 074°01'0 0.0
2017-Apr-20 17:00N 40°45' W 074°01'0 0.0
2017-Apr-20 16:30N 40°45' W 074°01'0 0.0
2017-Apr-20 16:00N 40°45' W 074°01'0 0.0
2017-Apr-20 15:30N 40°45' W 074°01'0 0.0
2017-Apr-20 15:00N 40°45' W 074°01'0 0.0
2017-Apr-20 14:00N 40°45' W 074°01'0 0.0
2017-Apr-20 13:30N 40°45' W 074°01'0 0.0
2017-Apr-20 13:00N 40°45' W 074°01'0 0.0
2017-Apr-20 12:30N 40°45' W 074°01'0 0.0
2017-Apr-20 12:00N 40°45' W 074°01'0 0.0
2017-Apr-20 11:30N 40°45' W 074°01'0 0.0
2017-Apr-20 11:00N 40°45' W 074°01'0 0.0
2017-Apr-20 10:30N 40°45' W 074°01'0 0.0
2017-Apr-20 10:00N 40°45' W 074°01'0 0.0
2017-Apr-20 09:30N 40°45' W 074°01'0 0.0
2017-Apr-20 09:00N 40°45' W 074°01'0 0.0
2017-Apr-20 08:30N 40°45' W 074°01'0 0.0
2017-Apr-20 08:00N 40°45' W 074°01'0 0.0
2017-Apr-20 07:30N 40°45' W 074°01'0 0.0
2017-Apr-20 07:00N 40°45' W 074°01'0 0.0
2017-Apr-20 06:30N 40°45' W 074°01'0 0.0
2017-Apr-20 06:00N 40°45' W 074°01'0 0.0
2017-Apr-20 05:30N 40°45' W 074°01'0 0.0
2017-Apr-20 05:00N 40°45' W 074°01'0 0.0
2017-Apr-20 04:30N 40°45' W 074°01'0 0.0
2017-Apr-20 04:00N 40°45' W 074°01'0 0.0
2017-Apr-20 03:30N 40°45' W 074°01'0 0.0
2017-Apr-20 03:00N 40°45' W 074°01'0 0.0
2017-Apr-20 02:30N 40°45' W 074°01'0 0.0
2017-Apr-20 02:00N 40°45' W 074°01'0 0.0
2017-Apr-20 01:30N 40°45' W 074°01'0 0.0
2017-Apr-20 01:00N 40°45' W 074°01'0 0.0
2017-Apr-20 00:30N 40°45' W 074°01'0 0.0
2017-Apr-20 00:00N 40°45' W 074°01'0 0.0
2017-Apr-19 23:30N 40°45' W 074°01'0 0.0
2017-Apr-19 23:00N 40°45' W 074°01'0 0.0
2017-Apr-19 22:30N 40°45' W 074°01'0 0.0
2017-Apr-19 22:00N 40°45' W 074°01'0 0.0
2017-Apr-19 21:30N 40°45' W 074°01'0 0.0
2017-Apr-19 21:00N 40°45' W 074°01'0 0.0
2017-Apr-19 20:30N 40°45' W 074°01'0 0.0
2017-Apr-19 20:00N 40°45' W 074°01'0 0.0
2017-Apr-19 19:30N 40°45' W 074°01'0 0.0
2017-Apr-19 17:53N 40°45' W 074°01'0 0.0
2017-Apr-19 17:30N 40°45' W 074°01'0 0.0
2017-Apr-19 17:00N 40°45' W 074°01'0 0.0
2017-Apr-19 16:30N 40°45' W 074°01'0 0.0
2017-Apr-19 16:00N 40°45' W 074°01'0 0.0
2017-Apr-19 15:30N 40°45' W 074°01'0 0.0
2017-Apr-19 15:00N 40°45' W 074°01'0 0.0
2017-Apr-19 14:30N 40°45' W 074°01'0 0.0
2017-Apr-19 13:30N 40°45' W 074°01'0 0.0
2017-Apr-19 13:00N 40°45' W 074°01'0 0.0
2017-Apr-19 12:30N 40°45' W 074°01'0 0.0
2017-Apr-19 12:00N 40°45' W 074°01'0 0.0
2017-Apr-19 11:30N 40°45' W 074°01'0 0.0
2017-Apr-19 11:00N 40°45' W 074°01'0 0.0
2017-Apr-19 10:30N 40°45' W 074°01'0 0.0
2017-Apr-19 10:00N 40°45' W 074°01'0 0.0
2017-Apr-19 09:30N 40°45' W 074°01'0 0.0
2017-Apr-19 09:00N 40°45' W 074°01'0 0.0
2017-Apr-19 08:30N 40°45' W 074°01'0 0.0
2017-Apr-19 08:00N 40°45' W 074°01'0 0.0
2017-Apr-19 07:31N 40°45' W 074°01'0 0.0
2017-Apr-19 07:00N 40°45' W 074°01'0 0.0
2017-Apr-19 06:30N 40°45' W 074°01'0 0.0
2017-Apr-19 06:00N 40°45' W 074°01'0 0.0
2017-Apr-19 05:30N 40°45' W 074°01'0 0.0
2017-Apr-19 05:00N 40°45' W 074°01'0 0.0
2017-Apr-19 04:30N 40°45' W 074°01'0 0.0
2017-Apr-19 04:00N 40°45' W 074°01'0 0.0
2017-Apr-19 03:30N 40°45' W 074°01'0 0.0
2017-Apr-19 03:00N 40°45' W 074°01'0 0.0
2017-Apr-19 02:30N 40°45' W 074°01'0 0.0
2017-Apr-19 02:00N 40°45' W 074°01'0 0.0
2017-Apr-19 01:30N 40°45' W 074°01'0 0.0
2017-Apr-19 01:00N 40°45' W 074°01'0 0.0
2017-Apr-19 00:30N 40°45' W 074°01'0 0.0
2017-Apr-19 00:00N 40°45' W 074°01'0 0.0
2017-Apr-18 23:30N 40°45' W 074°01'0 0.0
2017-Apr-18 22:59N 40°45' W 074°01'0 0.0
2017-Apr-18 22:30N 40°45' W 074°01'0 0.0
2017-Apr-18 22:00N 40°45' W 074°01'0 0.0
2017-Apr-18 21:30N 40°45' W 074°01'0 0.0
2017-Apr-18 21:01N 40°45' W 074°01'0 0.0
2017-Apr-18 20:30N 40°45' W 074°01'0 0.0
2017-Apr-18 20:00N 40°45' W 074°01'0 0.0
2017-Apr-18 19:30N 40°45' W 074°01'0 0.0
2017-Apr-18 19:00N 40°45' W 074°01'0 0.0
2017-Apr-18 18:31N 40°45' W 074°01'0 0.0
2017-Apr-18 18:00N 40°45' W 074°01'0 0.0
2017-Apr-18 17:31N 40°45' W 074°01'0 0.0
2017-Apr-18 17:00N 40°45' W 074°01'0 0.0
2017-Apr-18 16:30N 40°45' W 074°01'0 0.0
2017-Apr-18 16:00N 40°45' W 074°01'0 0.0
2017-Apr-18 15:29N 40°45' W 074°01'0 0.0
2017-Apr-18 15:00N 40°45' W 074°01'0 0.0
2017-Apr-18 14:00N 40°45' W 074°01'0 0.0
2017-Apr-18 13:30N 40°45' W 074°01'0 0.0
2017-Apr-18 13:00N 40°45' W 074°01'0 0.0
2017-Apr-18 12:29N 40°45' W 074°01'0 0.0
2017-Apr-18 12:00N 40°45' W 074°01'0 0.0
2017-Apr-18 11:30N 40°45' W 074°01'0 0.0
2017-Apr-18 11:00N 40°45' W 074°01'0 0.0
2017-Apr-18 10:30N 40°45' W 074°01'0 0.0
2017-Apr-18 10:00N 40°45' W 074°01'0 0.0
2017-Apr-18 09:30N 40°45' W 074°01'0 0.0
2017-Apr-18 09:00N 40°45' W 074°01'0 0.0
2017-Apr-18 08:30N 40°45' W 074°01'0 0.0
2017-Apr-18 08:00N 40°45' W 074°01'0 0.0
2017-Apr-18 07:30N 40°45' W 074°01'0 0.0
2017-Apr-18 07:00N 40°45' W 074°01'0 0.0
2017-Apr-18 06:30N 40°45' W 074°01'0 0.0
2017-Apr-18 06:00N 40°45' W 074°01'0 0.0
2017-Apr-18 05:30N 40°45' W 074°01'0 0.0
2017-Apr-18 05:00N 40°45' W 074°01'0 0.0
2017-Apr-18 04:30N 40°45' W 074°01'0 0.0
2017-Apr-18 04:00N 40°45' W 074°01'0 0.0
2017-Apr-18 03:30N 40°45' W 074°01'0 0.0
2017-Apr-18 03:00N 40°45' W 074°01'0 0.0
2017-Apr-18 02:00N 40°45' W 074°01'0 0.0
2017-Apr-18 01:30N 40°45' W 074°01'0 0.0
2017-Apr-18 01:00N 40°45' W 074°01'0 0.0
2017-Apr-18 00:30N 40°45' W 074°01'0 0.0
2017-Apr-18 00:00N 40°45' W 074°01'0 0.0
2017-Apr-17 23:30N 40°45' W 074°01'0 0.0
2017-Apr-17 23:00N 40°45' W 074°01'0 0.0
2017-Apr-17 22:30N 40°45' W 074°01'0 0.0
2017-Apr-17 22:00N 40°45' W 074°01'0 0.0
2017-Apr-17 21:30N 40°45' W 074°01'0 0.0
2017-Apr-17 21:00N 40°45' W 074°01'0 0.0
2017-Apr-17 20:30N 40°45' W 074°01'0 0.0
2017-Apr-17 20:00N 40°45' W 074°01'0 0.0
2017-Apr-17 19:30N 40°45' W 074°01'0 0.0
2017-Apr-17 19:00N 40°45' W 074°01'0 0.0
2017-Apr-17 18:30N 40°45' W 074°01'0 0.0
2017-Apr-17 18:00N 40°45' W 074°01'0 0.0
2017-Apr-17 17:31N 40°45' W 074°01'0 0.0
2017-Apr-17 17:00N 40°45' W 074°01'0 0.0
2017-Apr-17 16:30N 40°45' W 074°01'0 0.0
2017-Apr-17 16:00N 40°45' W 074°01'0 0.0
2017-Apr-17 15:30N 40°45' W 074°01'0 0.0
2017-Apr-17 15:00N 40°45' W 074°01'0 0.0
2017-Apr-17 14:29N 40°45' W 074°01'0 0.0
2017-Apr-17 13:30N 40°45' W 074°01'0 0.0
2017-Apr-17 13:01N 40°45' W 074°01'0 0.0
2017-Apr-17 12:30N 40°45' W 074°01'0 0.0
2017-Apr-17 12:00N 40°45' W 074°01'0 0.0
2017-Apr-17 11:30N 40°45' W 074°01'0 0.0
2017-Apr-17 11:00N 40°45' W 074°01'0 0.0
2017-Apr-17 10:29N 40°45' W 074°01'0 0.0
2017-Apr-17 10:00N 40°45' W 074°01'0 0.0
2017-Apr-17 09:30N 40°45' W 074°01'0 0.0
2017-Apr-17 09:00N 40°45' W 074°01'0 0.0
2017-Apr-17 08:30N 40°45' W 074°01'0 0.0
2017-Apr-17 08:00N 40°45' W 074°01'0 0.0
2017-Apr-17 07:30N 40°45' W 074°01'0 0.0
2017-Apr-17 07:00N 40°45' W 074°01'0 0.0
2017-Apr-17 06:30N 40°45' W 074°01'0 0.0
2017-Apr-17 06:00N 40°45' W 074°01'0 0.0
2017-Apr-17 05:30N 40°45' W 074°01'0 0.0
2017-Apr-17 05:00N 40°45' W 074°01'0 0.0
2017-Apr-17 04:30N 40°45' W 074°01'0 0.0
2017-Apr-17 03:59N 40°45' W 074°01'0 0.0
2017-Apr-17 03:30N 40°45' W 074°01'0 0.0
2017-Apr-17 03:00N 40°45' W 074°01'0 0.0
2017-Apr-17 02:30N 40°45' W 074°01'0 0.0
2017-Apr-17 02:00N 40°45' W 074°01'0 0.0
2017-Apr-17 01:30N 40°45' W 074°01'0 0.0
2017-Apr-17 01:00N 40°45' W 074°01'0 0.0
2017-Apr-17 00:30N 40°45' W 074°01'0 0.0
2017-Apr-17 00:00N 40°45' W 074°01'0 0.0
2017-Apr-16 23:30N 40°45' W 074°01'0 0.0
2017-Apr-16 23:00N 40°45' W 074°01'0 0.0
2017-Apr-16 22:30N 40°45' W 074°01'0 0.0
2017-Apr-16 22:00N 40°45' W 074°01'0 0.0
2017-Apr-16 21:30N 40°45' W 074°01'0 0.0
2017-Apr-16 21:00N 40°45' W 074°01'0 0.0
2017-Apr-16 20:31N 40°45' W 074°01'0 0.0
2017-Apr-16 20:00N 40°45' W 074°01'0 0.0
2017-Apr-16 19:30N 40°45' W 074°01'0 0.0
2017-Apr-16 19:00N 40°45' W 074°01'0 0.0
2017-Apr-16 18:30N 40°45' W 074°01'0 0.0
2017-Apr-16 18:00N 40°45' W 074°01'0 0.0
2017-Apr-16 17:30N 40°45' W 074°01'0 0.0
2017-Apr-16 17:00N 40°45' W 074°01'0 0.0
2017-Apr-16 16:30N 40°45' W 074°01'0 0.0
2017-Apr-16 16:00N 40°45' W 074°01'0 0.0
2017-Apr-16 15:30N 40°45' W 074°01'0 0.0
2017-Apr-16 15:00N 40°45' W 074°01'0 0.0
2017-Apr-16 14:00N 40°45' W 074°01'0 0.0
2017-Apr-16 13:30N 40°45' W 074°01'0 0.0
2017-Apr-16 13:00N 40°45' W 074°01'0 0.0
2017-Apr-16 12:30N 40°45' W 074°01'0 0.0
2017-Apr-16 12:00N 40°45' W 074°01'0 0.0
2017-Apr-16 11:30N 40°45' W 074°01'0 0.0
2017-Apr-16 11:00N 40°45' W 074°01'0 0.0
2017-Apr-16 10:30N 40°45' W 074°01'0 0.0
2017-Apr-16 10:00N 40°45' W 074°01'0 0.0
2017-Apr-16 09:30N 40°45' W 074°01'0 0.0
2017-Apr-16 09:00N 40°45' W 074°01'0 0.0
2017-Apr-16 08:30N 40°45' W 074°01'0 0.0
2017-Apr-16 08:00N 40°45' W 074°01'0 0.0
2017-Apr-16 07:30N 40°45' W 074°01'0 0.0
2017-Apr-16 07:00N 40°45' W 074°01'0 0.0
2017-Apr-16 06:31N 40°45' W 074°01'0 0.0
2017-Apr-16 06:00N 40°45' W 074°01'0 0.0
2017-Apr-16 05:30N 40°45' W 074°01'0 0.0
2017-Apr-16 05:00N 40°45' W 074°01'0 0.0
2017-Apr-16 04:30N 40°45' W 074°01'0 0.0
2017-Apr-16 04:00N 40°45' W 074°01'0 0.0
2017-Apr-16 03:31N 40°45' W 074°01'0 0.0
2017-Apr-16 03:00N 40°45' W 074°01'0 0.0
2017-Apr-16 02:30N 40°45' W 074°01'1 2.0
2017-Apr-16 02:00N 40°44' W 074°01'3 5.5
2017-Apr-16 01:28N 40°41' W 074°02'2 4.3
2017-Apr-16 00:56N 40°42' W 073°60'1 3.1
2017-Apr-16 00:28N 40°43' W 073°58'2 5.3
2017-Apr-16 00:01N 40°42' W 074°01'2 4.5
2017-Apr-15 23:30N 40°44' W 074°01'1 2.1
2017-Apr-15 23:00N 40°45' W 074°01'0 0.0
2017-Apr-15 22:30N 40°45' W 074°01'0 0.0
2017-Apr-15 22:00N 40°45' W 074°01'0 0.0
2017-Apr-15 21:30N 40°45' W 074°01'0 0.0
2017-Apr-15 21:00N 40°45' W 074°01'0 0.0
2017-Apr-15 20:30N 40°45' W 074°01'0 0.0
2017-Apr-15 20:00N 40°45' W 074°01'0 0.0
2017-Apr-15 19:30N 40°45' W 074°01'0 0.0
2017-Apr-15 19:00N 40°45' W 074°01'0 0.0
2017-Apr-15 18:30N 40°45' W 074°01'0 0.0
2017-Apr-15 18:00N 40°45' W 074°01'0 0.0
2017-Apr-15 17:30N 40°45' W 074°01'0 0.0
2017-Apr-15 17:00N 40°45' W 074°01'0 0.0
2017-Apr-15 16:30N 40°45' W 074°01'0 0.0
2017-Apr-15 16:00N 40°45' W 074°01'0 0.0
2017-Apr-15 15:30N 40°45' W 074°01'0 0.0
2017-Apr-15 15:00N 40°45' W 074°01'0 0.0
2017-Apr-15 14:30N 40°45' W 074°01'0 0.0
2017-Apr-15 13:30N 40°45' W 074°01'0 0.0
2017-Apr-15 13:00N 40°45' W 074°01'0 0.0
2017-Apr-15 12:31N 40°45' W 074°01'0 0.0
2017-Apr-15 12:00N 40°45' W 074°01'0 0.0
2017-Apr-15 11:30N 40°45' W 074°01'0 0.0
2017-Apr-15 11:00N 40°45' W 074°01'0 0.0
2017-Apr-15 10:30N 40°45' W 074°01'0 0.0
2017-Apr-15 10:00N 40°45' W 074°01'0 0.0
2017-Apr-15 09:30N 40°45' W 074°01'0 0.0
2017-Apr-15 09:00N 40°45' W 074°01'0 0.0
2017-Apr-15 08:30N 40°45' W 074°01'0 0.0
2017-Apr-15 08:00N 40°45' W 074°01'0 0.0
2017-Apr-15 07:30N 40°45' W 074°01'0 0.0
2017-Apr-15 07:00N 40°45' W 074°01'0 0.0
2017-Apr-15 06:30N 40°45' W 074°01'0 0.0
2017-Apr-15 06:00N 40°45' W 074°01'0 0.0
2017-Apr-15 05:30N 40°45' W 074°01'0 0.0
2017-Apr-15 05:00N 40°45' W 074°01'0 0.0
2017-Apr-15 04:30N 40°45' W 074°01'0 0.0
2017-Apr-15 04:00N 40°45' W 074°01'0 0.0
2017-Apr-15 03:30N 40°45' W 074°01'0 0.0
2017-Apr-15 03:00N 40°45' W 074°01'0 0.0
2017-Apr-15 02:30N 40°45' W 074°01'0 0.0
2017-Apr-15 02:01N 40°45' W 074°01'0 0.0
2017-Apr-15 01:30N 40°45' W 074°01'0 0.0
2017-Apr-15 01:00N 40°45' W 074°01'0 0.0
2017-Apr-15 00:30N 40°45' W 074°01'0 0.0
2017-Apr-15 00:00N 40°45' W 074°01'0 0.0
2017-Apr-14 23:30N 40°45' W 074°01'0 0.0
2017-Apr-14 23:00N 40°45' W 074°01'0 0.0
2017-Apr-14 22:30N 40°45' W 074°01'0 0.0
2017-Apr-14 22:00N 40°45' W 074°01'0 0.0
2017-Apr-14 21:30N 40°45' W 074°01'0 0.0
2017-Apr-14 21:00N 40°45' W 074°01'0 0.0
2017-Apr-14 20:30N 40°45' W 074°01'0 0.0
2017-Apr-14 20:00N 40°45' W 074°01'0 0.0
2017-Apr-14 19:31N 40°45' W 074°01'0 0.0
2017-Apr-14 19:00N 40°45' W 074°01'0 0.0
2017-Apr-14 18:31N 40°45' W 074°01'0 0.0
2017-Apr-14 18:00N 40°45' W 074°01'0 0.0
2017-Apr-14 17:30N 40°45' W 074°01'0 0.0
2017-Apr-14 17:00N 40°45' W 074°01'0 0.0
2017-Apr-14 16:30N 40°45' W 074°01'0 0.0
2017-Apr-14 16:00N 40°45' W 074°01'0 0.0
2017-Apr-14 15:30N 40°45' W 074°01'0 0.0
2017-Apr-14 15:00N 40°45' W 074°01'0 0.0
2017-Apr-14 14:30N 40°45' W 074°01'0 0.0
2017-Apr-14 13:30N 40°45' W 074°01'0 0.0
2017-Apr-14 13:01N 40°45' W 074°01'0 0.0
2017-Apr-14 12:30N 40°45' W 074°01'0 0.0
2017-Apr-14 12:00N 40°45' W 074°01'0 0.0
2017-Apr-14 11:30N 40°45' W 074°01'0 0.0
2017-Apr-14 11:00N 40°45' W 074°01'0 0.0
2017-Apr-14 10:30N 40°45' W 074°01'0 0.0
2017-Apr-14 10:00N 40°45' W 074°01'0 0.0
2017-Apr-14 09:30N 40°45' W 074°01'0 0.0
2017-Apr-14 09:00N 40°45' W 074°01'0 0.0
2017-Apr-14 08:30N 40°45' W 074°01'0 0.0
2017-Apr-14 08:00N 40°45' W 074°01'0 0.0
2017-Apr-14 07:31N 40°45' W 074°01'0 0.0
2017-Apr-14 07:00N 40°45' W 074°01'0 0.0
2017-Apr-14 06:30N 40°45' W 074°01'0 0.0
2017-Apr-14 06:00N 40°45' W 074°01'0 0.0
2017-Apr-14 05:30N 40°45' W 074°01'0 0.0
2017-Apr-14 05:00N 40°45' W 074°01'0 0.0
2017-Apr-14 04:30N 40°45' W 074°01'0 0.0
2017-Apr-14 04:00N 40°45' W 074°01'0 0.0
2017-Apr-14 03:30N 40°45' W 074°01'0 0.0
2017-Apr-14 03:00N 40°45' W 074°01'0 0.0
2017-Apr-14 02:30N 40°45' W 074°01'0 0.0
2017-Apr-14 02:00N 40°45' W 074°01'0 0.0
2017-Apr-14 01:30N 40°45' W 074°01'0 0.0
2017-Apr-14 01:00N 40°45' W 074°01'0 0.0
2017-Apr-14 00:30N 40°45' W 074°01'0 0.0
2017-Apr-14 00:00N 40°45' W 074°01'0 0.0
2017-Apr-13 23:30N 40°45' W 074°01'0 0.0
2017-Apr-13 23:00N 40°45' W 074°01'0 0.0
2017-Apr-13 22:29N 40°45' W 074°01'0 0.0
2017-Apr-13 22:00N 40°45' W 074°01'0 0.0
2017-Apr-13 21:31N 40°45' W 074°01'0 0.0
2017-Apr-13 21:00N 40°45' W 074°01'0 0.0
2017-Apr-13 20:30N 40°45' W 074°01'0 0.0
2017-Apr-13 20:00N 40°45' W 074°01'0 0.0
2017-Apr-13 19:30N 40°45' W 074°01'0 0.0
2017-Apr-13 19:01N 40°45' W 074°01'0 0.0
2017-Apr-13 18:30N 40°45' W 074°01'0 0.0
2017-Apr-13 18:00N 40°45' W 074°01'0 0.0
2017-Apr-13 17:31N 40°45' W 074°01'0 0.0
2017-Apr-13 17:00N 40°45' W 074°01'0 0.0
2017-Apr-13 16:30N 40°45' W 074°01'0 0.0
2017-Apr-13 16:00N 40°45' W 074°01'0 0.0
2017-Apr-13 15:30N 40°45' W 074°01'0 0.0
2017-Apr-13 15:01N 40°45' W 074°01'0 0.0
2017-Apr-13 14:00N 40°45' W 074°01'0 0.0
2017-Apr-13 13:30N 40°45' W 074°01'0 0.0
2017-Apr-13 13:00N 40°45' W 074°01'0 0.0
2017-Apr-13 12:30N 40°45' W 074°01'0 0.0
2017-Apr-13 12:00N 40°45' W 074°01'0 0.0
2017-Apr-13 11:29N 40°45' W 074°01'0 0.0
2017-Apr-13 11:00N 40°45' W 074°01'0 0.0
2017-Apr-13 10:30N 40°45' W 074°01'0 0.0
2017-Apr-13 10:00N 40°45' W 074°01'0 0.0
2017-Apr-13 09:30N 40°45' W 074°01'0 0.0
2017-Apr-13 09:00N 40°45' W 074°01'0 0.0
2017-Apr-13 08:30N 40°45' W 074°01'0 0.0
2017-Apr-13 08:00N 40°45' W 074°01'0 0.0
2017-Apr-13 07:30N 40°45' W 074°01'0 0.0
2017-Apr-13 07:00N 40°45' W 074°01'0 0.0
2017-Apr-13 06:30N 40°45' W 074°01'0 0.0
2017-Apr-13 06:00N 40°45' W 074°01'0 0.0
2017-Apr-13 05:30N 40°45' W 074°01'0 0.0
2017-Apr-13 05:00N 40°45' W 074°01'0 0.0
2017-Apr-13 04:31N 40°45' W 074°01'0 0.0
2017-Apr-13 04:00N 40°45' W 074°01'0 0.0
2017-Apr-13 03:30N 40°45' W 074°01'0 0.0
2017-Apr-13 03:00N 40°45' W 074°01'0 0.0
2017-Apr-13 02:30N 40°45' W 074°01'0 0.0
2017-Apr-13 02:00N 40°45' W 074°01'0 0.0
2017-Apr-13 01:30N 40°45' W 074°01'0 0.0
2017-Apr-13 01:00N 40°45' W 074°01'0 0.0
2017-Apr-13 00:30N 40°45' W 074°01'0 0.0
2017-Apr-13 00:00N 40°45' W 074°01'0 0.0
2017-Apr-12 23:30N 40°45' W 074°01'0 0.0
2017-Apr-12 23:00N 40°45' W 074°01'  
Track history (hours):
 
Tides and Currents Weather Stations Pressure Air Temp Water Temp Dewpoint Dewpoint Depression Visibility Wind Speed Wind Dir Waves Ship Positions

Cornucopia Destiny

Owner: Sultan Wholesale LLC, Keyport, NJ. More information available from US FCC via Universal Licensing System and Coast Guard Vessel Documentation Center.

Last reported at 2017-Apr-22 22:37 UTC. Time now 2017-Apr-25 16:33 UTC.
Position N 40°45' W 074°01'.

Length 39 m.

Type: Passenger vessel. MMSI: 367379570.

Date/timePositionNaut miles runAvg speedWind from/ knotsBaromVisibWave heightAir tempDewpointWater temp
2017-Apr-22 22:37N 40°45' W 074°01'0 0.0
2017-Apr-22 22:30N 40°45' W 074°01'0 0.0
2017-Apr-22 22:00N 40°45' W 074°01'0 0.0
2017-Apr-22 21:30N 40°45' W 074°01'0 0.0
2017-Apr-22 21:00N 40°45' W 074°01'0 0.0
2017-Apr-22 20:30N 40°45' W 074°01'0 0.0
2017-Apr-22 20:00N 40°45' W 074°01'0 0.0
2017-Apr-22 19:30N 40°45' W 074°01'0 0.0
2017-Apr-22 19:00N 40°45' W 074°01'0 0.0
2017-Apr-22 18:30N 40°45' W 074°01'0 0.0
2017-Apr-22 18:00N 40°45' W 074°01'0 0.0
2017-Apr-22 17:30N 40°45' W 074°01'0 0.0
2017-Apr-22 17:00N 40°45' W 074°01'0 0.0
2017-Apr-22 16:30N 40°45' W 074°01'0 0.0
2017-Apr-22 16:00N 40°45' W 074°01'0 0.0
2017-Apr-22 15:30N 40°45' W 074°01'0 0.0
2017-Apr-22 15:00N 40°45' W 074°01'0 0.0
2017-Apr-22 14:30N 40°45' W 074°01'0 0.0
2017-Apr-22 13:30N 40°45' W 074°01'0 0.0
2017-Apr-22 13:00N 40°45' W 074°01'0 0.0
2017-Apr-22 12:30N 40°45' W 074°01'0 0.0
2017-Apr-22 12:00N 40°45' W 074°01'0 0.0
2017-Apr-22 11:30N 40°45' W 074°01'0 0.0
2017-Apr-22 11:00N 40°45' W 074°01'0 0.0
2017-Apr-22 10:30N 40°45' W 074°01'0 0.0
2017-Apr-22 10:00N 40°45' W 074°01'0 0.0
2017-Apr-22 09:30N 40°45' W 074°01'0 0.0
2017-Apr-22 09:00N 40°45' W 074°01'0 0.0
2017-Apr-22 08:30N 40°45' W 074°01'0 0.0
2017-Apr-22 08:00N 40°45' W 074°01'0 0.0
2017-Apr-22 07:30N 40°45' W 074°01'0 0.0
2017-Apr-22 07:00N 40°45' W 074°01'0 0.0
2017-Apr-22 06:30N 40°45' W 074°01'0 0.0
2017-Apr-22 06:00N 40°45' W 074°01'0 0.0
2017-Apr-22 05:30N 40°45' W 074°01'0 0.0
2017-Apr-22 05:00N 40°45' W 074°01'0 0.0
2017-Apr-22 04:30N 40°45' W 074°01'0 0.0
2017-Apr-22 04:00N 40°45' W 074°01'0 0.3
2017-Apr-22 03:30N 40°45' W 074°01'3 5.0
2017-Apr-22 03:00N 40°43' W 074°02'0 1.0
2017-Apr-22 02:30N 40°43' W 074°02'1 1.1
2017-Apr-22 02:00N 40°43' W 074°02'1 1.3
2017-Apr-22 01:22N 40°42' W 074°02'1 2.5
2017-Apr-22 01:01N 40°42' W 074°01'2 3.0
2017-Apr-22 00:11N 40°43' W 073°58'2 3.3
2017-Apr-21 23:41N 40°42' W 073°60'1 4.3
2017-Apr-21 23:29N 40°42' W 074°01'1 2.9
2017-Apr-21 23:00N 40°43' W 074°02'0 0.0
2017-Apr-21 22:31N 40°43' W 074°02'1 2.8
2017-Apr-21 22:00N 40°44' W 074°01'1 2.7
2017-Apr-21 21:30N 40°45' W 074°01'0 0.0
2017-Apr-21 21:00N 40°45' W 074°01'0 0.0
2017-Apr-21 20:30N 40°45' W 074°01'0 0.0
2017-Apr-21 20:00N 40°45' W 074°01'0 0.0
2017-Apr-21 19:30N 40°45' W 074°01'0 0.0
2017-Apr-21 19:00N 40°45' W 074°01'0 0.0
2017-Apr-21 18:30N 40°45' W 074°01'0 0.0
2017-Apr-21 18:00N 40°45' W 074°01'0 0.0
2017-Apr-21 17:30N 40°45' W 074°01'0 0.0
2017-Apr-21 17:00N 40°45' W 074°01'0 0.0
2017-Apr-21 16:30N 40°45' W 074°01'0 0.0
2017-Apr-21 16:00N 40°45' W 074°01'0 0.0
2017-Apr-21 15:30N 40°45' W 074°01'0 0.0
2017-Apr-21 15:00N 40°45' W 074°01'0 0.0
2017-Apr-20 22:30N 40°45' W 074°01'0 0.0
2017-Apr-20 22:00N 40°45' W 074°01'0 0.0
2017-Apr-20 21:30N 40°45' W 074°01'0 0.0
2017-Apr-20 21:01N 40°45' W 074°01'0 0.0
2017-Apr-20 20:30N 40°45' W 074°01'0 0.0
2017-Apr-20 20:00N 40°45' W 074°01'0 0.0
2017-Apr-20 19:30N 40°45' W 074°01'0 0.0
2017-Apr-20 19:00N 40°45' W 074°01'0 0.0
2017-Apr-20 18:30N 40°45' W 074°01'0 0.0
2017-Apr-20 18:01N 40°45' W 074°01'0 0.0
2017-Apr-20 17:30N 40°45' W 074°01'0 0.0
2017-Apr-20 17:00N 40°45' W 074°01'0 0.0
2017-Apr-20 16:30N 40°45' W 074°01'0 0.0
2017-Apr-20 16:00N 40°45' W 074°01'0 0.0
2017-Apr-20 15:30N 40°45' W 074°01'0 0.0
2017-Apr-20 15:00N 40°45' W 074°01'0 0.0
2017-Apr-20 14:00N 40°45' W 074°01'0 0.0
2017-Apr-20 13:30N 40°45' W 074°01'0 0.0
2017-Apr-20 13:00N 40°45' W 074°01'0 0.0
2017-Apr-20 12:30N 40°45' W 074°01'0 0.0
2017-Apr-20 12:00N 40°45' W 074°01'0 0.0
2017-Apr-20 11:30N 40°45' W 074°01'0 0.0
2017-Apr-20 11:00N 40°45' W 074°01'0 0.0
2017-Apr-20 10:30N 40°45' W 074°01'0 0.0
2017-Apr-20 10:00N 40°45' W 074°01'0 0.0
2017-Apr-20 09:30N 40°45' W 074°01'0 0.0
2017-Apr-20 09:00N 40°45' W 074°01'0 0.0
2017-Apr-20 08:30N 40°45' W 074°01'0 0.0
2017-Apr-20 08:00N 40°45' W 074°01'0 0.0
2017-Apr-20 07:30N 40°45' W 074°01'0 0.0
2017-Apr-20 07:00N 40°45' W 074°01'0 0.0
2017-Apr-20 06:30N 40°45' W 074°01'0 0.0
2017-Apr-20 06:00N 40°45' W 074°01'0 0.0
2017-Apr-20 05:30N 40°45' W 074°01'0 0.0
2017-Apr-20 05:00N 40°45' W 074°01'0 0.0
2017-Apr-20 04:30N 40°45' W 074°01'0 0.0
2017-Apr-20 04:00N 40°45' W 074°01'0 0.0
2017-Apr-20 03:30N 40°45' W 074°01'0 0.0
2017-Apr-20 03:00N 40°45' W 074°01'0 0.0
2017-Apr-20 02:30N 40°45' W 074°01'0 0.0
2017-Apr-20 02:00N 40°45' W 074°01'0 0.0
2017-Apr-20 01:30N 40°45' W 074°01'0 0.0
2017-Apr-20 01:00N 40°45' W 074°01'0 0.0
2017-Apr-20 00:30N 40°45' W 074°01'0 0.0
2017-Apr-20 00:00N 40°45' W 074°01'0 0.0
2017-Apr-19 23:30N 40°45' W 074°01'0 0.0
2017-Apr-19 23:00N 40°45' W 074°01'0 0.0
2017-Apr-19 22:30N 40°45' W 074°01'0 0.0
2017-Apr-19 22:00N 40°45' W 074°01'0 0.0
2017-Apr-19 21:30N 40°45' W 074°01'0 0.0
2017-Apr-19 21:00N 40°45' W 074°01'0 0.0
2017-Apr-19 20:30N 40°45' W 074°01'0 0.0
2017-Apr-19 20:00N 40°45' W 074°01'0 0.0
2017-Apr-19 19:30N 40°45' W 074°01'0 0.0
2017-Apr-19 17:53N 40°45' W 074°01'0 0.0
2017-Apr-19 17:30N 40°45' W 074°01'0 0.0
2017-Apr-19 17:00N 40°45' W 074°01'0 0.0
2017-Apr-19 16:30N 40°45' W 074°01'0 0.0
2017-Apr-19 16:00N 40°45' W 074°01'0 0.0
2017-Apr-19 15:30N 40°45' W 074°01'0 0.0
2017-Apr-19 15:00N 40°45' W 074°01'0 0.0
2017-Apr-19 14:30N 40°45' W 074°01'0 0.0
2017-Apr-19 13:30N 40°45' W 074°01'0 0.0
2017-Apr-19 13:00N 40°45' W 074°01'0 0.0
2017-Apr-19 12:30N 40°45' W 074°01'0 0.0
2017-Apr-19 12:00N 40°45' W 074°01'0 0.0
2017-Apr-19 11:30N 40°45' W 074°01'0 0.0
2017-Apr-19 11:00N 40°45' W 074°01'0 0.0
2017-Apr-19 10:30N 40°45' W 074°01'0 0.0
2017-Apr-19 10:00N 40°45' W 074°01'0 0.0
2017-Apr-19 09:30N 40°45' W 074°01'0 0.0
2017-Apr-19 09:00N 40°45' W 074°01'0 0.0
2017-Apr-19 08:30N 40°45' W 074°01'0 0.0
2017-Apr-19 08:00N 40°45' W 074°01'0 0.0
2017-Apr-19 07:31N 40°45' W 074°01'0 0.0
2017-Apr-19 07:00N 40°45' W 074°01'0 0.0
2017-Apr-19 06:30N 40°45' W 074°01'0 0.0
2017-Apr-19 06:00N 40°45' W 074°01'0 0.0
2017-Apr-19 05:30N 40°45' W 074°01'0 0.0
2017-Apr-19 05:00N 40°45' W 074°01'0 0.0
2017-Apr-19 04:30N 40°45' W 074°01'0 0.0
2017-Apr-19 04:00N 40°45' W 074°01'0 0.0
2017-Apr-19 03:30N 40°45' W 074°01'0 0.0
2017-Apr-19 03:00N 40°45' W 074°01'0 0.0
2017-Apr-19 02:30N 40°45' W 074°01'0 0.0
2017-Apr-19 02:00N 40°45' W 074°01'0 0.0
2017-Apr-19 01:30N 40°45' W 074°01'0 0.0
2017-Apr-19 01:00N 40°45' W 074°01'0 0.0
2017-Apr-19 00:30N 40°45' W 074°01'0 0.0
2017-Apr-19 00:00N 40°45' W 074°01'0 0.0
2017-Apr-18 23:30N 40°45' W 074°01'0 0.0
2017-Apr-18 22:59N 40°45' W 074°01'0 0.0
2017-Apr-18 22:30N 40°45' W 074°01'0 0.0
2017-Apr-18 22:00N 40°45' W 074°01'0 0.0
2017-Apr-18 21:30N 40°45' W 074°01'0 0.0
2017-Apr-18 21:01N 40°45' W 074°01'0 0.0
2017-Apr-18 20:30N 40°45' W 074°01'0 0.0
2017-Apr-18 20:00N 40°45' W 074°01'0 0.0
2017-Apr-18 19:30N 40°45' W 074°01'0 0.0
2017-Apr-18 19:00N 40°45' W 074°01'0 0.0
2017-Apr-18 18:31N 40°45' W 074°01'0 0.0
2017-Apr-18 18:00N 40°45' W 074°01'0 0.0
2017-Apr-18 17:31N 40°45' W 074°01'0 0.0
2017-Apr-18 17:00N 40°45' W 074°01'0 0.0
2017-Apr-18 16:30N 40°45' W 074°01'0 0.0
2017-Apr-18 16:00N 40°45' W 074°01'0 0.0
2017-Apr-18 15:29N 40°45' W 074°01'0 0.0
2017-Apr-18 15:00N 40°45' W 074°01'0 0.0
2017-Apr-18 14:00N 40°45' W 074°01'0 0.0
2017-Apr-18 13:30N 40°45' W 074°01'0 0.0
2017-Apr-18 13:00N 40°45' W 074°01'0 0.0
2017-Apr-18 12:29N 40°45' W 074°01'0 0.0
2017-Apr-18 12:00N 40°45' W 074°01'0 0.0
2017-Apr-18 11:30N 40°45' W 074°01'0 0.0
2017-Apr-18 11:00N 40°45' W 074°01'0 0.0
2017-Apr-18 10:30N 40°45' W 074°01'0 0.0
2017-Apr-18 10:00N 40°45' W 074°01'0 0.0
2017-Apr-18 09:30N 40°45' W 074°01'0 0.0
2017-Apr-18 09:00N 40°45' W 074°01'0 0.0
2017-Apr-18 08:30N 40°45' W 074°01'0 0.0
2017-Apr-18 08:00N 40°45' W 074°01'0 0.0
2017-Apr-18 07:30N 40°45' W 074°01'0 0.0
2017-Apr-18 07:00N 40°45' W 074°01'0 0.0
2017-Apr-18 06:30N 40°45' W 074°01'0 0.0
2017-Apr-18 06:00N 40°45' W 074°01'0 0.0
2017-Apr-18 05:30N 40°45' W 074°01'0 0.0
2017-Apr-18 05:00N 40°45' W 074°01'0 0.0
2017-Apr-18 04:30N 40°45' W 074°01'0 0.0
2017-Apr-18 04:00N 40°45' W 074°01'0 0.0
2017-Apr-18 03:30N 40°45' W 074°01'0 0.0
2017-Apr-18 03:00N 40°45' W 074°01'0 0.0
2017-Apr-18 02:00N 40°45' W 074°01'0 0.0
2017-Apr-18 01:30N 40°45' W 074°01'0 0.0
2017-Apr-18 01:00N 40°45' W 074°01'0 0.0
2017-Apr-18 00:30N 40°45' W 074°01'0 0.0
2017-Apr-18 00:00N 40°45' W 074°01'0 0.0
2017-Apr-17 23:30N 40°45' W 074°01'0 0.0
2017-Apr-17 23:00N 40°45' W 074°01'0 0.0
2017-Apr-17 22:30N 40°45' W 074°01'0 0.0
2017-Apr-17 22:00N 40°45' W 074°01'0 0.0
2017-Apr-17 21:30N 40°45' W 074°01'0 0.0
2017-Apr-17 21:00N 40°45' W 074°01'0 0.0
2017-Apr-17 20:30N 40°45' W 074°01'0 0.0
2017-Apr-17 20:00N 40°45' W 074°01'0 0.0
2017-Apr-17 19:30N 40°45' W 074°01'0 0.0
2017-Apr-17 19:00N 40°45' W 074°01'0 0.0
2017-Apr-17 18:30N 40°45' W 074°01'0 0.0
2017-Apr-17 18:00N 40°45' W 074°01'0 0.0
2017-Apr-17 17:31N 40°45' W 074°01'0 0.0
2017-Apr-17 17:00N 40°45' W 074°01'0 0.0
2017-Apr-17 16:30N 40°45' W 074°01'0 0.0
2017-Apr-17 16:00N 40°45' W 074°01'0 0.0
2017-Apr-17 15:30N 40°45' W 074°01'0 0.0
2017-Apr-17 15:00N 40°45' W 074°01'0 0.0
2017-Apr-17 14:29N 40°45' W 074°01'0 0.0
2017-Apr-17 13:30N 40°45' W 074°01'0 0.0
2017-Apr-17 13:01N 40°45' W 074°01'0 0.0
2017-Apr-17 12:30N 40°45' W 074°01'0 0.0
2017-Apr-17 12:00N 40°45' W 074°01'0 0.0
2017-Apr-17 11:30N 40°45' W 074°01'0 0.0
2017-Apr-17 11:00N 40°45' W 074°01'0 0.0
2017-Apr-17 10:29N 40°45' W 074°01'0 0.0
2017-Apr-17 10:00N 40°45' W 074°01'0 0.0
2017-Apr-17 09:30N 40°45' W 074°01'0 0.0
2017-Apr-17 09:00N 40°45' W 074°01'0 0.0
2017-Apr-17 08:30N 40°45' W 074°01'0 0.0
2017-Apr-17 08:00N 40°45' W 074°01'0 0.0
2017-Apr-17 07:30N 40°45' W 074°01'0 0.0
2017-Apr-17 07:00N 40°45' W 074°01'0 0.0
2017-Apr-17 06:30N 40°45' W 074°01'0 0.0
2017-Apr-17 06:00N 40°45' W 074°01'0 0.0
2017-Apr-17 05:30N 40°45' W 074°01'0 0.0
2017-Apr-17 05:00N 40°45' W 074°01'0 0.0
2017-Apr-17 04:30N 40°45' W 074°01'0 0.0
2017-Apr-17 03:59N 40°45' W 074°01'0 0.0
2017-Apr-17 03:30N 40°45' W 074°01'0 0.0
2017-Apr-17 03:00N 40°45' W 074°01'0 0.0
2017-Apr-17 02:30N 40°45' W 074°01'0 0.0
2017-Apr-17 02:00N 40°45' W 074°01'0 0.0
2017-Apr-17 01:30N 40°45' W 074°01'0 0.0
2017-Apr-17 01:00N 40°45' W 074°01'0 0.0
2017-Apr-17 00:30N 40°45' W 074°01'0 0.0
2017-Apr-17 00:00N 40°45' W 074°01'0 0.0
2017-Apr-16 23:30N 40°45' W 074°01'0 0.0
2017-Apr-16 23:00N 40°45' W 074°01'0 0.0
2017-Apr-16 22:30N 40°45' W 074°01'0 0.0
2017-Apr-16 22:00N 40°45' W 074°01'0 0.0
2017-Apr-16 21:30N 40°45' W 074°01'0 0.0
2017-Apr-16 21:00N 40°45' W 074°01'0 0.0
2017-Apr-16 20:31N 40°45' W 074°01'0 0.0
2017-Apr-16 20:00N 40°45' W 074°01'0 0.0
2017-Apr-16 19:30N 40°45' W 074°01'0 0.0
2017-Apr-16 19:00N 40°45' W 074°01'0 0.0
2017-Apr-16 18:30N 40°45' W 074°01'0 0.0
2017-Apr-16 18:00N 40°45' W 074°01'0 0.0
2017-Apr-16 17:30N 40°45' W 074°01'0 0.0
2017-Apr-16 17:00N 40°45' W 074°01'0 0.0
2017-Apr-16 16:30N 40°45' W 074°01'0 0.0
2017-Apr-16 16:00N 40°45' W 074°01'0 0.0
2017-Apr-16 15:30N 40°45' W 074°01'0 0.0
2017-Apr-16 15:00N 40°45' W 074°01'0 0.0
2017-Apr-16 14:00N 40°45' W 074°01'0 0.0
2017-Apr-16 13:30N 40°45' W 074°01'0 0.0
2017-Apr-16 13:00N 40°45' W 074°01'0 0.0
2017-Apr-16 12:30N 40°45' W 074°01'0 0.0
2017-Apr-16 12:00N 40°45' W 074°01'0 0.0
2017-Apr-16 11:30N 40°45' W 074°01'0 0.0
2017-Apr-16 11:00N 40°45' W 074°01'0 0.0
2017-Apr-16 10:30N 40°45' W 074°01'0 0.0
2017-Apr-16 10:00N 40°45' W 074°01'0 0.0
2017-Apr-16 09:30N 40°45' W 074°01'0 0.0
2017-Apr-16 09:00N 40°45' W 074°01'0 0.0
2017-Apr-16 08:30N 40°45' W 074°01'0 0.0
2017-Apr-16 08:00N 40°45' W 074°01'0 0.0
2017-Apr-16 07:30N 40°45' W 074°01'0 0.0
2017-Apr-16 07:00N 40°45' W 074°01'0 0.0
2017-Apr-16 06:31N 40°45' W 074°01'0 0.0
2017-Apr-16 06:00N 40°45' W 074°01'0 0.0
2017-Apr-16 05:30N 40°45' W 074°01'0 0.0
2017-Apr-16 05:00N 40°45' W 074°01'0 0.0
2017-Apr-16 04:30N 40°45' W 074°01'0 0.0
2017-Apr-16 04:00N 40°45' W 074°01'0 0.0
2017-Apr-16 03:31N 40°45' W 074°01'0 0.0
2017-Apr-16 03:00N 40°45' W 074°01'0 0.0
2017-Apr-16 02:30N 40°45' W 074°01'1 2.0
2017-Apr-16 02:00N 40°44' W 074°01'3 5.5
2017-Apr-16 01:28N 40°41' W 074°02'2 4.3
2017-Apr-16 00:56N 40°42' W 073°60'1 3.1
2017-Apr-16 00:28N 40°43' W 073°58'2 5.3
2017-Apr-16 00:01N 40°42' W 074°01'2 4.5
2017-Apr-15 23:30N 40°44' W 074°01'1 2.1
2017-Apr-15 23:00N 40°45' W 074°01'0 0.0
2017-Apr-15 22:30N 40°45' W 074°01'0 0.0
2017-Apr-15 22:00N 40°45' W 074°01'0 0.0
2017-Apr-15 21:30N 40°45' W 074°01'0 0.0
2017-Apr-15 21:00N 40°45' W 074°01'0 0.0
2017-Apr-15 20:30N 40°45' W 074°01'0 0.0
2017-Apr-15 20:00N 40°45' W 074°01'0 0.0
2017-Apr-15 19:30N 40°45' W 074°01'0 0.0
2017-Apr-15 19:00N 40°45' W 074°01'0 0.0
2017-Apr-15 18:30N 40°45' W 074°01'0 0.0
2017-Apr-15 18:00N 40°45' W 074°01'0 0.0
2017-Apr-15 17:30N 40°45' W 074°01'0 0.0
2017-Apr-15 17:00N 40°45' W 074°01'0 0.0
2017-Apr-15 16:30N 40°45' W 074°01'0 0.0
2017-Apr-15 16:00N 40°45' W 074°01'0 0.0
2017-Apr-15 15:30N 40°45' W 074°01'0 0.0
2017-Apr-15 15:00N 40°45' W 074°01'0 0.0
2017-Apr-15 14:30N 40°45' W 074°01'0 0.0
2017-Apr-15 13:30N 40°45' W 074°01'0 0.0
2017-Apr-15 13:00N 40°45' W 074°01'0 0.0
2017-Apr-15 12:31N 40°45' W 074°01'0 0.0
2017-Apr-15 12:00N 40°45' W 074°01'0 0.0
2017-Apr-15 11:30N 40°45' W 074°01'0 0.0
2017-Apr-15 11:00N 40°45' W 074°01'0 0.0
2017-Apr-15 10:30N 40°45' W 074°01'0 0.0
2017-Apr-15 10:00N 40°45' W 074°01'0 0.0
2017-Apr-15 09:30N 40°45' W 074°01'0 0.0
2017-Apr-15 09:00N 40°45' W 074°01'0 0.0
2017-Apr-15 08:30N 40°45' W 074°01'0 0.0
2017-Apr-15 08:00N 40°45' W 074°01'0 0.0
2017-Apr-15 07:30N 40°45' W 074°01'0 0.0
2017-Apr-15 07:00N 40°45' W 074°01'0 0.0
2017-Apr-15 06:30N 40°45' W 074°01'0 0.0
2017-Apr-15 06:00N 40°45' W 074°01'0 0.0
2017-Apr-15 05:30N 40°45' W 074°01'0 0.0
2017-Apr-15 05:00N 40°45' W 074°01'0 0.0
2017-Apr-15 04:30N 40°45' W 074°01'0 0.0
2017-Apr-15 04:00N 40°45' W 074°01'0 0.0
2017-Apr-15 03:30N 40°45' W 074°01'0 0.0
2017-Apr-15 03:00N 40°45' W 074°01'0 0.0
2017-Apr-15 02:30N 40°45' W 074°01'0 0.0
2017-Apr-15 02:01N 40°45' W 074°01'0 0.0
2017-Apr-15 01:30N 40°45' W 074°01'0 0.0
2017-Apr-15 01:00N 40°45' W 074°01'0 0.0
2017-Apr-15 00:30N 40°45' W 074°01'0 0.0
2017-Apr-15 00:00N 40°45' W 074°01'0 0.0
2017-Apr-14 23:30N 40°45' W 074°01'0 0.0
2017-Apr-14 23:00N 40°45' W 074°01'0 0.0
2017-Apr-14 22:30N 40°45' W 074°01'0 0.0
2017-Apr-14 22:00N 40°45' W 074°01'0 0.0
2017-Apr-14 21:30N 40°45' W 074°01'0 0.0
2017-Apr-14 21:00N 40°45' W 074°01'0 0.0
2017-Apr-14 20:30N 40°45' W 074°01'0 0.0
2017-Apr-14 20:00N 40°45' W 074°01'0 0.0
2017-Apr-14 19:31N 40°45' W 074°01'0 0.0
2017-Apr-14 19:00N 40°45' W 074°01'0 0.0
2017-Apr-14 18:31N 40°45' W 074°01'0 0.0
2017-Apr-14 18:00N 40°45' W 074°01'0 0.0
2017-Apr-14 17:30N 40°45' W 074°01'0 0.0
2017-Apr-14 17:00N 40°45' W 074°01'0 0.0
2017-Apr-14 16:30N 40°45' W 074°01'0 0.0
2017-Apr-14 16:00N 40°45' W 074°01'0 0.0
2017-Apr-14 15:30N 40°45' W 074°01'0 0.0
2017-Apr-14 15:00N 40°45' W 074°01'0 0.0
2017-Apr-14 14:30N 40°45' W 074°01'0 0.0
2017-Apr-14 13:30N 40°45' W 074°01'0 0.0
2017-Apr-14 13:01N 40°45' W 074°01'0 0.0
2017-Apr-14 12:30N 40°45' W 074°01'0 0.0
2017-Apr-14 12:00N 40°45' W 074°01'0 0.0
2017-Apr-14 11:30N 40°45' W 074°01'0 0.0
2017-Apr-14 11:00N 40°45' W 074°01'0 0.0
2017-Apr-14 10:30N 40°45' W 074°01'0 0.0
2017-Apr-14 10:00N 40°45' W 074°01'0 0.0
2017-Apr-14 09:30N 40°45' W 074°01'0 0.0
2017-Apr-14 09:00N 40°45' W 074°01'0 0.0
2017-Apr-14 08:30N 40°45' W 074°01'0 0.0
2017-Apr-14 08:00N 40°45' W 074°01'0 0.0
2017-Apr-14 07:31N 40°45' W 074°01'0 0.0
2017-Apr-14 07:00N 40°45' W 074°01'0 0.0
2017-Apr-14 06:30N 40°45' W 074°01'0 0.0
2017-Apr-14 06:00N 40°45' W 074°01'0 0.0
2017-Apr-14 05:30N 40°45' W 074°01'0 0.0
2017-Apr-14 05:00N 40°45' W 074°01'0 0.0
2017-Apr-14 04:30N 40°45' W 074°01'0 0.0
2017-Apr-14 04:00N 40°45' W 074°01'0 0.0
2017-Apr-14 03:30N 40°45' W 074°01'0 0.0
2017-Apr-14 03:00N 40°45' W 074°01'0 0.0
2017-Apr-14 02:30N 40°45' W 074°01'0 0.0
2017-Apr-14 02:00N 40°45' W 074°01'0 0.0
2017-Apr-14 01:30N 40°45' W 074°01'0 0.0
2017-Apr-14 01:00N 40°45' W 074°01'0 0.0
2017-Apr-14 00:30N 40°45' W 074°01'0 0.0
2017-Apr-14 00:00N 40°45' W 074°01'0 0.0
2017-Apr-13 23:30N 40°45' W 074°01'0 0.0
2017-Apr-13 23:00N 40°45' W 074°01'0 0.0
2017-Apr-13 22:29N 40°45' W 074°01'0 0.0
2017-Apr-13 22:00N 40°45' W 074°01'0 0.0
2017-Apr-13 21:31N 40°45' W 074°01'0 0.0
2017-Apr-13 21:00N 40°45' W 074°01'0 0.0
2017-Apr-13 20:30N 40°45' W 074°01'0 0.0
2017-Apr-13 20:00N 40°45' W 074°01'0 0.0
2017-Apr-13 19:30N 40°45' W 074°01'0 0.0
2017-Apr-13 19:01N 40°45' W 074°01'0 0.0
2017-Apr-13 18:30N 40°45' W 074°01'0 0.0
2017-Apr-13 18:00N 40°45' W 074°01'0 0.0
2017-Apr-13 17:31N 40°45' W 074°01'0 0.0
2017-Apr-13 17:00N 40°45' W 074°01'0 0.0
2017-Apr-13 16:30N 40°45' W 074°01'0 0.0
2017-Apr-13 16:00N 40°45' W 074°01'0 0.0
2017-Apr-13 15:30N 40°45' W 074°01'0 0.0
2017-Apr-13 15:01N 40°45' W 074°01'0 0.0
2017-Apr-13 14:00N 40°45' W 074°01'0 0.0
2017-Apr-13 13:30N 40°45' W 074°01'0 0.0
2017-Apr-13 13:00N 40°45' W 074°01'0 0.0
2017-Apr-13 12:30N 40°45' W 074°01'0 0.0
2017-Apr-13 12:00N 40°45' W 074°01'0 0.0
2017-Apr-13 11:29N 40°45' W 074°01'0 0.0
2017-Apr-13 11:00N 40°45' W 074°01'0 0.0
2017-Apr-13 10:30N 40°45' W 074°01'0 0.0
2017-Apr-13 10:00N 40°45' W 074°01'0 0.0
2017-Apr-13 09:30N 40°45' W 074°01'0 0.0
2017-Apr-13 09:00N 40°45' W 074°01'0 0.0
2017-Apr-13 08:30N 40°45' W 074°01'0 0.0
2017-Apr-13 08:00N 40°45' W 074°01'0 0.0
2017-Apr-13 07:30N 40°45' W 074°01'0 0.0
2017-Apr-13 07:00N 40°45' W 074°01'0 0.0
2017-Apr-13 06:30N 40°45' W 074°01'0 0.0
2017-Apr-13 06:00N 40°45' W 074°01'0 0.0
2017-Apr-13 05:30N 40°45' W 074°01'0 0.0
2017-Apr-13 05:00N 40°45' W 074°01'0 0.0
2017-Apr-13 04:31N 40°45' W 074°01'0 0.0
2017-Apr-13 04:00N 40°45' W 074°01'0 0.0
2017-Apr-13 03:30N 40°45' W 074°01'0 0.0
2017-Apr-13 03:00N 40°45' W 074°01'0 0.0
2017-Apr-13 02:30N 40°45' W 074°01'0 0.0
2017-Apr-13 02:00N 40°45' W 074°01'0 0.0
2017-Apr-13 01:30N 40°45' W 074°01'0 0.0
2017-Apr-13 01:00N 40°45' W 074°01'0 0.0
2017-Apr-13 00:30N 40°45' W 074°01'0 0.0
2017-Apr-13 00:00N 40°45' W 074°01'0 0.0
2017-Apr-12 23:30N 40°45' W 074°01'0 0.0
2017-Apr-12 23:00N 40°45' W 074°01'  

Dump ship's entire track history